Time;durP1;ratioP1;P1;durP2;ratioP2;P2;SDS_P1;SDS_P2;PMS_P1;PMS_P2;Temp;Humidity;BMP_temperature;BMP_pressure;BME280_temperature;BME280_humidity;BME280_pressure;Samples;Min_cycle;Max_cycle;Signal;HPM_P1;HPM_P2
2024/04/11 00:01:34;;;;;;;15.13;2.53;;;13.20;99.90;;;;;;5410259;26;19995;-74
2024/04/11 00:03:59;;;;;;;11.18;2.30;;;13.20;99.90;;;;;;5452006;26;20446;-72
2024/04/11 00:06:25;;;;;;;10.05;2.15;;;13.10;99.90;;;;;;5450155;26;20512;-73
2024/04/11 00:08:51;;;;;;;11.90;2.10;;;13.10;99.90;;;;;;5419673;26;19998;-72
2024/04/11 00:11:18;;;;;;;19.00;2.42;;;13.00;99.90;;;;;;5431450;26;20006;-74
2024/04/11 00:13:44;;;;;;;10.65;1.58;;;13.00;99.90;;;;;;5405876;26;20011;-74
2024/04/11 00:16:10;;;;;;;11.00;2.10;;;13.10;99.90;;;;;;5401439;26;20468;-72
2024/04/11 00:18:39;;;;;;;11.82;2.10;;;13.00;99.90;;;;;;5453279;26;20022;-72
2024/04/11 00:21:05;;;;;;;9.43;1.88;;;12.90;99.90;;;;;;5440415;26;20014;-75
2024/04/11 00:23:31;;;;;;;8.43;1.88;;;13.00;99.90;;;;;;5460713;26;20339;-73
2024/04/11 00:25:58;;;;;;;12.73;2.33;;;12.90;99.90;;;;;;5402192;26;19999;-73
2024/04/11 00:28:25;;;;;;;11.85;2.25;;;13.00;99.90;;;;;;5416685;26;20743;-72
2024/04/11 00:30:51;;;;;;;16.95;2.88;;;13.00;99.90;;;;;;5420969;26;20462;-73
2024/04/11 00:33:17;;;;;;;9.13;1.90;;;13.00;99.90;;;;;;5423738;26;20013;-74
2024/04/11 00:35:49;;;;;;;11.73;2.03;;;12.90;99.90;;;;;;5401600;26;19995;-72
2024/04/11 00:38:16;;;;;;;11.87;2.33;;;12.90;99.90;;;;;;5479355;26;19998;-73
2024/04/11 00:40:42;;;;;;;15.05;2.30;;;13.00;99.90;;;;;;5459434;26;20009;-77
2024/04/11 00:43:11;;;;;;;9.05;1.95;;;13.10;99.90;;;;;;5454856;26;20079;-73
2024/04/11 00:45:47;;;;;;;14.13;2.70;;;13.00;99.90;;;;;;5430715;26;20042;-74
2024/04/11 00:48:16;;;;;;;8.85;1.70;;;13.00;99.90;;;;;;5441681;26;20757;-73
2024/04/11 00:50:42;;;;;;;8.75;1.83;;;13.10;99.90;;;;;;5480097;26;20013;-77
2024/04/11 00:53:11;;;;;;;13.52;2.03;;;13.10;99.90;;;;;;5448700;26;19994;-73
2024/04/11 00:55:38;;;;;;;12.40;2.47;;;13.00;99.90;;;;;;5457875;26;20328;-72
2024/04/11 00:58:04;;;;;;;11.82;1.80;;;13.10;99.90;;;;;;5460187;26;20009;-72
2024/04/11 01:00:29;;;;;;;10.50;2.13;;;13.10;99.90;;;;;;5475677;26;19998;-72
2024/04/11 01:02:56;;;;;;;6.57;1.90;;;13.10;99.90;;;;;;5430997;26;19994;-75
2024/04/11 01:05:21;;;;;;;12.05;1.88;;;13.20;99.90;;;;;;5454408;26;19994;-72
2024/04/11 01:07:55;;;;;;;8.90;1.63;;;13.20;99.90;;;;;;5434208;26;20013;-72
2024/04/11 01:10:22;;;;;;;13.43;2.05;;;13.20;99.90;;;;;;5436359;26;20010;-73
2024/04/11 01:12:48;;;;;;;13.52;2.00;;;13.20;99.90;;;;;;5458210;26;19995;-74
2024/04/11 01:15:15;;;;;;;10.95;1.95;;;13.10;99.90;;;;;;5464796;26;19994;-71
2024/04/11 01:17:40;;;;;;;12.85;2.25;;;13.10;99.90;;;;;;5415289;26;19995;-73
2024/04/11 01:20:06;;;;;;;7.70;1.70;;;13.10;99.90;;;;;;5427132;26;20013;-74
2024/04/11 01:22:37;;;;;;;10.20;2.25;;;13.20;99.90;;;;;;5442628;26;19999;-72
2024/04/11 01:25:03;;;;;;;7.90;1.77;;;13.20;99.90;;;;;;5456733;26;19999;-73
2024/04/11 01:27:29;;;;;;;9.63;1.65;;;13.30;99.90;;;;;;5492545;26;20006;-72
2024/04/11 01:29:57;;;;;;;11.35;1.67;;;13.30;99.90;;;;;;5449335;26;20009;-74
2024/04/11 01:32:24;;;;;;;9.98;2.13;;;13.40;99.90;;;;;;5394581;26;19994;-72
2024/04/11 01:34:56;;;;;;;13.52;2.30;;;13.50;99.90;;;;;;5452701;26;20007;-72
2024/04/11 01:37:24;;;;;;;8.30;2.13;;;13.40;99.90;;;;;;5437985;26;20002;-72
2024/04/11 01:39:50;;;;;;;10.90;2.53;;;13.30;99.90;;;;;;5446198;26;19994;-73
2024/04/11 01:42:18;;;;;;;9.90;1.80;;;13.30;99.90;;;;;;5428988;26;19998;-71
2024/04/11 01:44:44;;;;;;;12.15;2.20;;;13.30;99.90;;;;;;5486403;26;19994;-71
2024/04/11 01:47:14;;;;;;;5.93;1.95;;;13.30;99.90;;;;;;5429539;26;20003;-72
2024/04/11 01:49:43;;;;;;;6.93;1.88;;;13.20;99.90;;;;;;5434553;26;20079;-73
2024/04/11 01:52:09;;;;;;;8.45;1.48;;;13.40;99.90;;;;;;5417153;26;19999;-73
2024/04/11 01:54:41;;;;;;;11.95;1.67;;;13.40;99.90;;;;;;5477803;26;20006;-73
2024/04/11 01:57:08;;;;;;;14.43;2.42;;;13.40;99.90;;;;;;5446796;26;20010;-71
2024/04/11 01:59:34;;;;;;;5.97;1.30;;;13.40;99.90;;;;;;5456559;26;20002;-74
2024/04/11 02:02:01;;;;;;;10.48;1.92;;;13.40;99.90;;;;;;5453584;26;20114;-71
2024/04/11 02:04:30;;;;;;;12.70;1.98;;;13.40;99.90;;;;;;5468791;26;19998;-73
2024/04/11 02:06:59;;;;;;;12.20;2.20;;;13.50;99.90;;;;;;5485936;26;20327;-75
2024/04/11 02:09:27;;;;;;;7.07;1.83;;;13.50;99.90;;;;;;5432707;26;20033;-72
2024/04/11 02:11:53;;;;;;;8.77;1.65;;;13.50;99.90;;;;;;5477318;26;19998;-73
2024/04/11 02:14:20;;;;;;;8.70;1.40;;;13.50;99.90;;;;;;5478518;26;20021;-72
2024/04/11 02:16:45;;;;;;;5.18;1.45;;;13.50;99.90;;;;;;5452690;26;19998;-72
2024/04/11 02:19:12;;;;;;;8.15;1.67;;;13.50;99.90;;;;;;5424303;26;20009;-72
2024/04/11 02:21:42;;;;;;;10.05;2.20;;;13.40;99.90;;;;;;5388334;26;20006;-71
2024/04/11 02:24:11;;;;;;;9.40;2.15;;;13.50;99.90;;;;;;5459649;26;20003;-72
2024/04/11 02:26:37;;;;;;;13.70;2.10;;;13.40;99.90;;;;;;5456880;26;20003;-72
2024/04/11 02:29:06;;;;;;;10.15;1.67;;;13.40;99.90;;;;;;5411502;26;20024;-72
2024/04/11 02:31:33;;;;;;;7.35;1.65;;;13.40;99.90;;;;;;5445089;26;19995;-73
2024/04/11 02:34:00;;;;;;;5.60;1.65;;;13.40;99.90;;;;;;5420130;26;19995;-71
2024/04/11 02:36:29;;;;;;;13.82;2.15;;;13.40;99.90;;;;;;5439509;26;19994;-72
2024/04/11 02:38:56;;;;;;;8.45;1.88;;;13.40;99.90;;;;;;5490477;26;20051;-72
2024/04/11 02:41:22;;;;;;;8.18;2.35;;;13.40;99.90;;;;;;5455905;26;19999;-71
2024/04/11 02:43:48;;;;;;;11.30;2.20;;;13.60;99.90;;;;;;5428153;26;20531;-72
2024/04/11 02:46:17;;;;;;;11.82;1.90;;;13.60;99.90;;;;;;5445819;26;20002;-71
2024/04/11 02:48:44;;;;;;;11.15;1.95;;;13.50;99.90;;;;;;5437253;26;20031;-72
2024/04/11 02:51:11;;;;;;;13.07;1.70;;;13.40;99.90;;;;;;5474640;26;20042;-72
2024/04/11 02:53:39;;;;;;;10.57;2.13;;;13.40;99.90;;;;;;5452563;26;20012;-72
2024/04/11 02:56:09;;;;;;;8.48;2.28;;;13.30;99.90;;;;;;5437313;26;20017;-72
2024/04/11 02:58:36;;;;;;;5.10;1.38;;;13.30;99.90;;;;;;5432733;26;20010;-74
2024/04/11 03:01:06;;;;;;;9.95;1.63;;;13.40;99.90;;;;;;5469859;26;20351;-73
2024/04/11 03:03:34;;;;;;;9.00;1.95;;;13.40;99.90;;;;;;5444763;26;20005;-73
2024/04/11 03:06:11;;;;;;;9.93;1.92;;;13.40;99.90;;;;;;5435077;26;20016;-73
2024/04/11 03:08:40;;;;;;;7.25;1.77;;;13.30;99.90;;;;;;5475835;26;20017;-71
2024/04/11 03:11:10;;;;;;;10.50;1.90;;;13.30;99.90;;;;;;5471460;26;19998;-72
2024/04/11 03:13:36;;;;;;;10.25;1.75;;;13.40;99.90;;;;;;5483385;26;19998;-72
2024/04/11 03:16:03;;;;;;;12.32;1.77;;;13.50;99.90;;;;;;5470585;26;19998;-73
2024/04/11 03:18:29;;;;;;;6.53;1.95;;;13.50;99.90;;;;;;5452241;26;20086;-71
2024/04/11 03:20:57;;;;;;;14.50;2.45;;;13.50;99.90;;;;;;5415791;26;20360;-71
2024/04/11 03:23:24;;;;;;;8.95;1.67;;;13.40;99.90;;;;;;5475107;26;20002;-73
2024/04/11 03:25:50;;;;;;;10.32;1.70;;;13.40;99.90;;;;;;5425222;26;20436;-73
2024/04/11 03:28:17;;;;;;;11.27;2.42;;;13.40;99.90;;;;;;5439282;26;20013;-73
2024/04/11 03:31:08;;;;;;;11.93;2.22;;;13.40;99.90;;;;;;5442085;26;20778;-72
2024/04/11 03:33:34;;;;;;;14.65;1.73;;;13.40;99.90;;;;;;5482000;26;19999;-73
2024/04/11 03:36:05;;;;;;;9.13;1.73;;;13.40;99.90;;;;;;5440245;26;20511;-73
2024/04/11 03:38:30;;;;;;;13.98;2.40;;;13.30;99.90;;;;;;5457504;26;20010;-71
2024/04/11 03:41:02;;;;;;;12.90;2.13;;;13.40;99.90;;;;;;5468765;26;19994;-74
2024/04/11 03:43:28;;;;;;;10.60;1.92;;;13.40;99.90;;;;;;5445098;26;20451;-72
2024/04/11 03:46:08;;;;;;;10.77;2.13;;;13.20;99.90;;;;;;5475236;26;20037;-71
2024/04/11 03:48:35;;;;;;;6.70;1.63;;;13.20;99.90;;;;;;5451401;26;19998;-73
2024/04/11 03:51:13;;;;;;;7.82;1.52;;;13.20;99.90;;;;;;5456551;26;20002;-72
2024/04/11 03:53:42;;;;;;;11.35;2.45;;;13.30;99.90;;;;;;5457611;26;19994;-73
2024/04/11 03:56:14;;;;;;;11.93;2.05;;;13.30;99.90;;;;;;5503429;26;20012;-72
2024/04/11 03:58:40;;;;;;;9.85;2.28;;;13.30;99.90;;;;;;5439213;26;20003;-73
2024/04/11 04:01:15;;;;;;;16.98;2.22;;;13.20;99.90;;;;;;5429521;26;19998;-72
2024/04/11 04:03:47;;;;;;;13.45;2.72;;;13.20;99.90;;;;;;5485446;26;20009;-72
2024/04/11 04:06:15;;;;;;;14.38;2.10;;;13.30;99.90;;;;;;5476656;26;20014;-72
2024/04/11 04:08:44;;;;;;;14.65;2.03;;;13.20;99.90;;;;;;5482474;26;20447;-72
2024/04/11 04:11:10;;;;;;;10.65;2.05;;;13.20;99.90;;;;;;5442770;26;20435;-73
2024/04/11 04:13:37;;;;;;;10.88;2.28;;;13.20;99.90;;;;;;5460771;26;20006;-72
2024/04/11 04:16:10;;;;;;;13.70;2.53;;;13.30;99.90;;;;;;5463642;26;20105;-73
2024/04/11 04:18:37;;;;;;;8.75;2.78;;;13.30;99.90;;;;;;5458388;26;20310;-72
2024/04/11 04:21:04;;;;;;;16.05;2.70;;;13.30;99.90;;;;;;5437866;26;19999;-73
2024/04/11 04:23:30;;;;;;;11.63;2.20;;;13.30;99.90;;;;;;5446927;26;20435;-72
2024/04/11 04:26:04;;;;;;;10.18;1.95;;;13.30;99.90;;;;;;5445160;26;20431;-76
2024/04/11 04:28:40;;;;;;;9.68;2.38;;;13.20;99.90;;;;;;5426521;26;20116;-73
2024/04/11 04:31:28;;;;;;;15.63;2.42;;;13.30;99.90;;;;;;5426191;26;19999;-73
2024/04/11 04:33:55;;;;;;;20.30;2.28;;;13.20;99.90;;;;;;5474426;26;20002;-72
2024/04/11 04:36:28;;;;;;;12.10;2.25;;;13.20;99.90;;;;;;5401425;26;20453;-73
2024/04/11 04:38:56;;;;;;;12.43;2.25;;;13.10;99.90;;;;;;5487431;26;20095;-72
2024/04/11 04:41:27;;;;;;;10.88;2.17;;;13.20;99.90;;;;;;5458213;26;20002;-72
2024/04/11 04:43:56;;;;;;;13.10;2.08;;;13.20;99.90;;;;;;5455444;26;20401;-72
2024/04/11 04:46:28;;;;;;;11.13;2.03;;;13.30;99.90;;;;;;5478056;26;20067;-72
2024/04/11 04:49:00;;;;;;;11.30;2.47;;;13.30;99.90;;;;;;5436109;26;20013;-72
2024/04/11 04:51:26;;;;;;;10.73;1.77;;;13.30;99.90;;;;;;5460393;26;20002;-73
2024/04/11 04:53:53;;;;;;;11.05;2.10;;;13.30;99.90;;;;;;5461386;26;20031;-72
2024/04/11 04:56:22;;;;;;;6.45;1.58;;;13.10;99.90;;;;;;5440241;26;19999;-72
2024/04/11 04:58:51;;;;;;;16.48;2.88;;;13.20;99.90;;;;;;5462802;26;19998;-73
2024/04/11 05:01:17;;;;;;;9.38;1.73;;;13.20;99.90;;;;;;5416176;26;20300;-72
2024/04/11 05:03:44;;;;;;;6.55;2.08;;;13.10;99.90;;;;;;5427098;26;20409;-74
2024/04/11 05:06:13;;;;;;;16.67;1.80;;;13.10;99.90;;;;;;5491257;26;19994;-73
2024/04/11 05:08:46;;;;;;;12.65;2.35;;;13.10;99.90;;;;;;5483008;26;20017;-73
2024/04/11 05:11:12;;;;;;;7.60;2.22;;;13.10;99.90;;;;;;5474628;26;19995;-74
2024/04/11 05:13:44;;;;;;;8.45;1.63;;;13.10;99.90;;;;;;5454138;26;20005;-72
2024/04/11 05:16:10;;;;;;;14.90;2.40;;;13.10;99.90;;;;;;5446670;26;20436;-72
2024/04/11 05:18:37;;;;;;;15.63;2.00;;;13.10;99.90;;;;;;5446323;26;20002;-74
2024/04/11 05:21:09;;;;;;;9.27;1.95;;;13.10;99.90;;;;;;5463068;26;19999;-72
2024/04/11 05:23:38;;;;;;;6.07;1.33;;;13.10;99.90;;;;;;5456898;26;19990;-76
2024/04/11 05:26:11;;;;;;;7.70;1.73;;;13.10;99.90;;;;;;5449684;26;20003;-75
2024/04/11 05:28:37;;;;;;;11.13;2.00;;;13.10;99.90;;;;;;5456350;26;20111;-73
2024/04/11 05:31:05;;;;;;;8.02;1.70;;;13.10;99.90;;;;;;5431222;26;20011;-73
2024/04/11 05:33:38;;;;;;;8.07;1.70;;;13.20;99.90;;;;;;5428483;26;19998;-74
2024/04/11 05:36:06;;;;;;;11.00;2.22;;;13.20;99.90;;;;;;5442023;26;20006;-74
2024/04/11 05:38:37;;;;;;;8.93;1.67;;;13.20;99.90;;;;;;5397833;26;20400;-72
2024/04/11 05:41:09;;;;;;;11.15;2.08;;;13.10;99.90;;;;;;5426966;26;20455;-73
2024/04/11 05:43:38;;;;;;;14.07;2.37;;;13.10;99.90;;;;;;5418802;26;19994;-73
2024/04/11 05:46:05;;;;;;;10.20;2.40;;;13.20;99.90;;;;;;5440173;26;20028;-73
2024/04/11 05:48:31;;;;;;;11.38;2.33;;;13.10;99.90;;;;;;5460263;26;20002;-72
2024/04/11 05:50:58;;;;;;;9.35;2.20;;;13.10;99.90;;;;;;5422636;26;20003;-73
2024/04/11 05:53:24;;;;;;;7.93;1.92;;;13.10;99.90;;;;;;5405066;26;20079;-71
2024/04/11 05:55:51;;;;;;;11.50;1.90;;;13.00;99.90;;;;;;5422071;26;20011;-71
2024/04/11 05:58:19;;;;;;;16.58;2.60;;;13.00;99.90;;;;;;5480821;26;20018;-72
2024/04/11 06:00:49;;;;;;;11.65;1.85;;;13.10;99.90;;;;;;5451306;26;20005;-71
2024/04/11 06:03:15;;;;;;;16.35;2.58;;;13.10;99.90;;;;;;5434850;26;20021;-74
2024/04/11 06:05:41;;;;;;;10.77;2.00;;;13.20;99.90;;;;;;5427547;26;19994;-74
2024/04/11 06:08:08;;;;;;;10.88;2.55;;;13.20;99.90;;;;;;5427994;26;20022;-71
2024/04/11 06:10:34;;;;;;;16.77;2.90;;;13.20;99.90;;;;;;5455974;26;20006;-72
2024/04/11 06:13:01;;;;;;;11.43;2.45;;;13.30;99.90;;;;;;5400364;26;20084;-72
2024/04/11 06:15:27;;;;;;;10.45;2.45;;;13.40;99.90;;;;;;5392912;26;19995;-75
2024/04/11 06:17:53;;;;;;;10.32;1.90;;;13.50;99.90;;;;;;5439410;26;20013;-73
2024/04/11 06:20:24;;;;;;;9.35;2.28;;;13.50;99.90;;;;;;5437963;26;20011;-73
2024/04/11 06:22:52;;;;;;;7.68;2.03;;;13.50;99.90;;;;;;5445740;26;19998;-72
2024/04/11 06:25:19;;;;;;;8.95;2.33;;;13.60;99.90;;;;;;5441650;26;20052;-73
2024/04/11 06:27:45;;;;;;;9.55;2.75;;;13.60;99.90;;;;;;5445076;26;19995;-73
2024/04/11 06:30:14;;;;;;;20.05;2.35;;;13.60;99.90;;;;;;5418657;26;19998;-73
2024/04/11 06:32:41;;;;;;;13.88;2.33;;;13.60;99.90;;;;;;5474885;26;19995;-73
2024/04/11 06:35:08;;;;;;;14.63;2.70;;;13.70;99.90;;;;;;5453532;26;20124;-72
2024/04/11 06:37:38;;;;;;;13.85;2.00;;;13.70;99.90;;;;;;5405019;26;20010;-77
2024/04/11 06:40:11;;;;;;;10.95;2.38;;;13.60;99.90;;;;;;5427650;26;20023;-75
2024/04/11 06:42:46;;;;;;;14.02;2.65;;;13.60;99.90;;;;;;5436507;26;20031;-75
2024/04/11 06:45:23;;;;;;;18.95;2.70;;;13.70;99.90;;;;;;5464737;26;20048;-73
2024/04/11 06:47:49;;;;;;;18.20;3.38;;;13.80;99.90;;;;;;5451769;26;20075;-72
2024/04/11 06:50:15;;;;;;;19.83;3.10;;;13.70;99.90;;;;;;5465237;26;20397;-73
2024/04/11 06:52:42;;;;;;;10.25;2.33;;;13.70;99.90;;;;;;5453222;26;20010;-75
2024/04/11 06:55:14;;;;;;;19.02;2.55;;;13.60;99.90;;;;;;5486134;26;20073;-73
2024/04/11 06:57:43;;;;;;;13.73;2.42;;;13.70;99.90;;;;;;5433722;26;19998;-72
2024/04/11 07:00:14;;;;;;;20.88;2.90;;;13.60;99.90;;;;;;5430587;26;19999;-72
2024/04/11 07:02:46;;;;;;;9.02;2.10;;;13.60;99.90;;;;;;5447977;26;20010;-72
2024/04/11 07:05:13;;;;;;;20.00;2.67;;;13.60;99.90;;;;;;5395853;26;20541;-72
2024/04/11 07:07:45;;;;;;;13.73;2.40;;;13.60;99.90;;;;;;5454173;26;19999;-72
2024/04/11 07:10:24;;;;;;;11.73;2.58;;;13.70;99.90;;;;;;5421271;26;19999;-73
2024/04/11 07:12:59;;;;;;;16.23;3.60;;;13.80;99.90;;;;;;5452644;26;19999;-73
2024/04/11 07:15:29;;;;;;;13.07;2.72;;;13.70;99.90;;;;;;5393453;26;20019;-72
2024/04/11 07:17:57;;;;;;;17.63;2.67;;;13.70;99.90;;;;;;5428072;26;20009;-72
2024/04/11 07:20:30;;;;;;;13.30;2.65;;;13.70;99.90;;;;;;5439315;26;19998;-72
2024/04/11 07:22:58;;;;;;;15.90;2.75;;;13.70;99.90;;;;;;5450187;26;20014;-75
2024/04/11 07:25:25;;;;;;;10.07;2.30;;;13.70;99.90;;;;;;5467953;26;20315;-71
2024/04/11 07:27:51;;;;;;;10.93;2.42;;;13.60;99.90;;;;;;5454054;26;20006;-73
2024/04/11 07:30:20;;;;;;;13.10;2.47;;;13.60;99.90;;;;;;5454782;26;20419;-72
2024/04/11 07:32:46;;;;;;;15.48;2.60;;;13.50;99.90;;;;;;5458077;26;19998;-72
2024/04/11 07:35:15;;;;;;;14.18;2.47;;;13.60;99.90;;;;;;5400921;26;20070;-71
2024/04/11 07:37:41;;;;;;;13.02;2.22;;;13.80;99.90;;;;;;5474865;26;20013;-73
2024/04/11 07:40:27;;;;;;;19.13;2.58;;;13.90;99.90;;;;;;5416241;26;20007;-72
2024/04/11 07:43:06;;;;;;;11.88;3.15;;;14.10;99.90;;;;;;5399670;26;20048;-73
2024/04/11 07:45:36;;;;;;;10.25;2.45;;;14.30;99.90;;;;;;5413663;26;20439;-72
2024/04/11 07:48:07;;;;;;;15.32;2.90;;;14.40;99.90;;;;;;5461692;26;20075;-73
2024/04/11 07:50:34;;;;;;;15.93;2.40;;;14.40;99.90;;;;;;5445810;26;20079;-73
2024/04/11 07:53:02;;;;;;;10.85;2.58;;;14.50;99.90;;;;;;5461663;26;19999;-73
2024/04/11 07:55:28;;;;;;;17.42;2.40;;;14.60;99.90;;;;;;5444653;26;20003;-73
2024/04/11 07:57:54;;;;;;;11.98;2.75;;;14.60;99.90;;;;;;5435101;26;19995;-72
2024/04/11 08:00:27;;;;;;;15.57;3.20;;;14.40;99.90;;;;;;5423030;26;20332;-74
2024/04/11 08:02:56;;;;;;;16.02;2.38;;;14.10;99.90;;;;;;5399918;26;20013;-72
2024/04/11 08:05:25;;;;;;;10.30;2.85;;;13.80;99.90;;;;;;5457196;26;19998;-71
2024/04/11 08:07:54;;;;;;;21.58;2.97;;;13.60;99.90;;;;;;5425933;26;20077;-73
2024/04/11 08:10:20;;;;;;;10.02;2.55;;;13.40;99.90;;;;;;5444365;26;20104;-74
2024/04/11 08:12:50;;;;;;;14.73;3.60;;;13.40;99.90;;;;;;5446659;26;19994;-74
2024/04/11 08:15:16;;;;;;;12.23;3.20;;;13.60;99.90;;;;;;5393544;26;20017;-74
2024/04/11 08:17:42;;;;;;;14.68;3.35;;;13.70;99.90;;;;;;5420070;26;20003;-72
2024/04/11 08:20:12;;;;;;;14.52;3.25;;;13.70;99.90;;;;;;5442955;26;20364;-74
2024/04/11 08:22:42;;;;;;;16.58;3.30;;;13.80;99.90;;;;;;5383954;26;20086;-72
2024/04/11 08:25:14;;;;;;;15.93;3.30;;;13.80;99.90;;;;;;5436938;26;19998;-72
2024/04/11 08:27:42;;;;;;;10.77;3.00;;;13.70;99.90;;;;;;5448900;26;19999;-72
2024/04/11 08:30:09;;;;;;;14.05;3.13;;;13.60;99.90;;;;;;5451532;26;20031;-71
2024/04/11 08:32:35;;;;;;;19.25;3.10;;;13.50;99.90;;;;;;5482058;26;20013;-75
2024/04/11 08:35:02;;;;;;;16.60;3.65;;;13.40;99.90;;;;;;5436152;26;20027;-71
2024/04/11 08:37:28;;;;;;;13.30;3.22;;;13.30;99.90;;;;;;5413646;26;20451;-71
2024/04/11 08:39:55;;;;;;;16.30;3.60;;;13.20;99.90;;;;;;5420201;26;20124;-71
2024/04/11 08:42:21;;;;;;;17.30;3.38;;;13.10;99.90;;;;;;5427482;26;20017;-74
2024/04/11 08:44:48;;;;;;;13.35;3.47;;;13.10;99.90;;;;;;5417200;26;20335;-74
2024/04/11 08:47:14;;;;;;;18.58;4.53;;;13.20;99.90;;;;;;5433311;26;20447;-72
2024/04/11 08:49:40;;;;;;;12.63;3.72;;;13.30;99.90;;;;;;5394196;26;20008;-72
2024/04/11 08:52:07;;;;;;;8.90;3.17;;;13.40;99.90;;;;;;5422723;26;20076;-73
2024/04/11 08:54:38;;;;;;;9.55;3.50;;;13.30;99.90;;;;;;5419407;26;20013;-72
2024/04/11 08:57:06;;;;;;;17.08;4.10;;;13.20;99.90;;;;;;5447486;26;20003;-75
2024/04/11 08:59:33;;;;;;;11.30;3.63;;;13.20;99.90;;;;;;5456196;26;20023;-72
2024/04/11 09:01:58;;;;;;;16.20;3.53;;;13.20;99.90;;;;;;5429834;26;20030;-72
2024/04/11 09:04:24;;;;;;;13.27;3.17;;;13.30;99.90;;;;;;5433004;26;19998;-74
2024/04/11 09:06:53;;;;;;;14.10;3.42;;;13.30;99.90;;;;;;5406810;26;20335;-73
2024/04/11 09:09:19;;;;;;;13.32;3.10;;;13.30;99.90;;;;;;5459714;26;20051;-72
2024/04/11 09:11:46;;;;;;;28.20;4.22;;;13.40;99.90;;;;;;5461285;26;20002;-76
2024/04/11 09:14:15;;;;;;;18.30;4.75;;;13.50;99.90;;;;;;5418882;26;20013;-75
2024/04/11 09:16:42;;;;;;;12.55;3.55;;;13.50;99.90;;;;;;5460120;26;20003;-74
2024/04/11 09:19:11;;;;;;;14.32;3.20;;;13.40;99.90;;;;;;5403051;26;20007;-73
2024/04/11 09:21:44;;;;;;;19.27;4.13;;;13.30;99.90;;;;;;5469675;26;20002;-72
2024/04/11 09:24:13;;;;;;;12.57;3.55;;;13.20;99.90;;;;;;5398560;26;20003;-74
2024/04/11 09:26:40;;;;;;;16.60;2.95;;;13.10;99.90;;;;;;5399996;26;20009;-72
2024/04/11 09:29:05;;;;;;;14.77;3.50;;;13.10;99.90;;;;;;5398884;26;20006;-73
2024/04/11 09:31:32;;;;;;;21.55;4.10;;;13.10;99.90;;;;;;5399401;26;20488;-74
2024/04/11 09:33:58;;;;;;;8.00;3.50;;;13.20;99.90;;;;;;5407644;26;19999;-74
2024/04/11 09:36:31;;;;;;;15.45;4.18;;;13.30;99.90;;;;;;5423738;26;20039;-73
2024/04/11 09:39:05;;;;;;;11.35;3.00;;;13.40;99.90;;;;;;5476832;26;20119;-74
2024/04/11 09:41:34;;;;;;;16.02;4.15;;;13.60;99.90;;;;;;5447605;26;20100;-73
2024/04/11 09:44:02;;;;;;;11.88;3.50;;;13.60;99.90;;;;;;5461516;26;20002;-74
2024/04/11 09:46:31;;;;;;;15.43;4.20;;;13.70;99.90;;;;;;5490601;26;19998;-74
2024/04/11 09:48:59;;;;;;;16.00;3.42;;;13.90;99.90;;;;;;5460173;26;19999;-74
2024/04/11 09:51:28;;;;;;;17.60;4.43;;;14.20;99.90;;;;;;5463061;26;19998;-74
2024/04/11 09:53:55;;;;;;;16.88;3.38;;;15.10;99.90;;;;;;5475443;26;19997;-72
2024/04/11 09:56:23;;;;;;;13.10;2.65;;;15.40;99.90;;;;;;5492544;26;20005;-74
2024/04/11 09:58:51;;;;;;;10.93;3.13;;;15.40;99.90;;;;;;5395890;26;20419;-74
2024/04/11 10:01:30;;;;;;;9.60;2.95;;;15.60;99.90;;;;;;5428708;26;20660;-73
2024/04/11 10:04:13;;;;;;;11.68;3.25;;;16.10;99.90;;;;;;5402591;26;20010;-73
2024/04/11 10:06:41;;;;;;;15.55;3.38;;;16.80;99.90;;;;;;5423179;26;20419;-74
2024/04/11 10:09:17;;;;;;;11.07;3.35;;;16.70;99.90;;;;;;5457188;26;20454;-73
2024/04/11 10:11:49;;;;;;;10.85;3.20;;;17.60;99.90;;;;;;5458879;26;20444;-73
2024/04/11 10:14:20;;;;;;;12.90;3.15;;;18.40;99.90;;;;;;5424987;26;20022;-73
2024/04/11 10:16:48;;;;;;;8.82;2.60;;;18.20;99.90;;;;;;5393878;26;20881;-73
2024/04/11 10:19:31;;;;;;;8.40;2.67;;;17.90;99.90;;;;;;5424599;26;20003;-73
2024/04/11 10:22:07;;;;;;;9.98;3.10;;;18.10;99.90;;;;;;5455283;26;20003;-73
2024/04/11 10:24:35;;;;;;;8.55;2.88;;;19.40;99.90;;;;;;5430151;26;20083;-72
2024/04/11 10:27:18;;;;;;;12.48;3.40;;;19.40;99.90;;;;;;5490603;26;20013;-71
2024/04/11 10:29:49;;;;;;;11.05;2.78;;;20.70;99.90;;;;;;5442480;26;20003;-72
2024/04/11 10:32:26;;;;;;;15.07;3.20;;;22.00;99.90;;;;;;5452680;26;19998;-71
2024/04/11 10:34:58;;;;;;;12.20;2.80;;;22.70;99.90;;;;;;5459363;26;20008;-71
2024/04/11 10:37:29;;;;;;;6.45;2.53;;;22.60;99.90;;;;;;5417181;26;20043;-72
2024/04/11 10:39:58;;;;;;;11.85;3.00;;;21.50;99.90;;;;;;5454432;26;20007;-72
2024/04/11 10:42:36;;;;;;;9.35;3.25;;;21.30;99.90;;;;;;5472059;26;20013;-72
2024/04/11 10:45:04;;;;;;;11.15;3.50;;;21.30;99.90;;;;;;5425394;26;20011;-72
2024/04/11 10:47:31;;;;;;;19.05;3.42;;;21.80;99.90;;;;;;5446231;26;20390;-72
2024/04/11 10:49:59;;;;;;;18.65;3.88;;;22.40;99.90;;;;;;5407960;26;20012;-73
2024/04/11 10:52:24;;;;;;;16.40;3.65;;;21.90;99.90;;;;;;5403289;26;19999;-71
2024/04/11 10:55:00;;;;;;;15.20;3.20;;;21.40;99.90;;;;;;5430383;26;20017;-72
2024/04/11 10:57:27;;;;;;;12.10;2.80;;;20.60;99.90;;;;;;5478615;26;20332;-71
2024/04/11 10:59:53;;;;;;;13.77;3.72;;;21.30;99.90;;;;;;5472089;26;20005;-71
2024/04/11 11:02:23;;;;;;;12.73;3.40;;;22.10;99.90;;;;;;5455677;26;19998;-73
2024/04/11 11:04:50;;;;;;;11.43;3.03;;;21.40;99.90;;;;;;5423185;26;20009;-73
2024/04/11 11:07:20;;;;;;;12.40;3.47;;;21.00;99.90;;;;;;5419960;26;20083;-73
2024/04/11 11:09:51;;;;;;;10.25;3.33;;;20.70;99.90;;;;;;5422686;26;20008;-73
2024/04/11 11:12:19;;;;;;;10.32;3.13;;;20.10;99.90;;;;;;5431362;26;19999;-73
2024/04/11 11:14:49;;;;;;;9.82;3.50;;;19.80;99.90;;;;;;5420907;26;20083;-73
2024/04/11 11:17:18;;;;;;;19.90;4.38;;;19.70;99.90;;;;;;5461127;26;20021;-73
2024/04/11 11:19:49;;;;;;;12.43;3.58;;;19.30;99.90;;;;;;5487374;26;20451;-73
2024/04/11 11:22:33;;;;;;;10.30;3.63;;;18.90;99.90;;;;;;5447843;26;20006;-73
2024/04/11 11:25:00;;;;;;;11.93;3.75;;;18.60;99.90;;;;;;5444642;26;20001;-74
2024/04/11 11:27:31;;;;;;;15.55;4.03;;;18.50;99.90;;;;;;5437851;26;20025;-75
2024/04/11 11:29:57;;;;;;;15.40;4.25;;;18.20;99.90;;;;;;5473176;26;20071;-74
2024/04/11 11:32:25;;;;;;;11.57;3.78;;;17.90;99.90;;;;;;5418104;26;20003;-74
2024/04/11 11:34:52;;;;;;;14.55;4.38;;;17.60;99.90;;;;;;5412061;26;19994;-73
2024/04/11 11:37:21;;;;;;;14.45;3.92;;;17.50;99.90;;;;;;5448112;26;20003;-73
2024/04/11 11:39:55;;;;;;;15.70;4.90;;;17.50;99.90;;;;;;5391776;26;20335;-73
2024/04/11 11:42:26;;;;;;;10.68;4.15;;;17.20;99.90;;;;;;5472120;26;20015;-74
2024/04/11 11:47:34;;;;;;;18.38;5.18;;;17.00;99.90;;;;;;5429218;26;20002;-74
2024/04/11 11:50:01;;;;;;;26.92;7.88;;;16.90;99.90;;;;;;5452676;26;20040;-75
2024/04/11 11:52:27;;;;;;;52.08;13.77;;;16.80;99.90;;;;;;5464718;26;20403;-75
2024/04/11 11:54:54;;;;;;;15.50;5.60;;;16.80;99.90;;;;;;5401861;26;20066;-73
2024/04/11 11:57:22;;;;;;;12.50;5.65;;;17.00;99.90;;;;;;5419760;26;20009;-74
2024/04/11 11:59:48;;;;;;;15.75;6.05;;;17.00;99.90;;;;;;5426526;26;20459;-74
2024/04/11 12:02:14;;;;;;;14.00;5.05;;;16.90;99.90;;;;;;5437650;26;20154;-74
2024/04/11 12:04:44;;;;;;;42.67;12.40;;;16.80;99.90;;;;;;5450937;26;20462;-75
2024/04/11 12:07:12;;;;;;;21.00;6.38;;;16.80;99.90;;;;;;5425035;26;19999;-74
2024/04/11 12:09:43;;;;;;;19.95;5.18;;;17.10;99.90;;;;;;5419799;26;20027;-73
2024/04/11 12:12:23;;;;;;;14.00;5.60;;;17.30;99.90;;;;;;5424371;26;19999;-73
2024/04/11 12:15:00;;;;;;;13.45;4.93;;;17.50;99.90;;;;;;5394640;26;20046;-73
2024/04/11 12:17:26;;;;;;;12.35;5.10;;;17.90;99.90;;;;;;5418257;26;20002;-76
2024/04/11 12:19:53;;;;;;;15.60;5.53;;;18.30;99.90;;;;;;5460578;26;20014;-75
2024/04/11 12:22:19;;;;;;;15.98;5.97;;;18.10;99.90;;;;;;5400564;26;20335;-74
2024/04/11 12:24:46;;;;;;;14.43;6.43;;;18.00;99.90;;;;;;5414725;26;20035;-75
2024/04/11 12:27:13;;;;;;;16.48;5.50;;;17.70;99.90;;;;;;5456830;26;20010;-74
2024/04/11 12:29:43;;;;;;;13.40;5.75;;;17.50;99.90;;;;;;5424380;26;20091;-74
2024/04/11 12:32:13;;;;;;;15.68;5.40;;;17.50;99.90;;;;;;5456937;26;20402;-74
2024/04/11 12:34:42;;;;;;;10.55;5.50;;;17.60;99.90;;;;;;5440427;26;19998;-74
2024/04/11 12:37:16;;;;;;;14.80;5.50;;;17.50;99.90;;;;;;5446327;26;20002;-74
2024/04/11 12:39:45;;;;;;;18.05;4.95;;;17.50;99.90;;;;;;5441855;26;20017;-74
2024/04/11 12:42:22;;;;;;;16.42;5.63;;;17.60;99.90;;;;;;5452176;26;20002;-74
2024/04/11 12:44:48;;;;;;;12.52;5.15;;;17.60;99.90;;;;;;5427352;26;20442;-74
2024/04/11 12:47:14;;;;;;;15.80;4.97;;;17.60;99.90;;;;;;5458620;26;19999;-73
2024/04/11 12:49:49;;;;;;;13.00;5.10;;;17.70;99.90;;;;;;5413491;26;20013;-74